Time;durP1;ratioP1;P1;durP2;ratioP2;P2;SDS_P1;SDS_P2;PMS_P1;PMS_P2;Temp;Humidity;BMP_temperature;BMP_pressure;BME280_temperature;BME280_humidity;BME280_pressure;Samples;Min_cycle;Max_cycle;Signal;HPM_P1;HPM_P2
2022/04/25 00:01:03;;;;;;;14.20;8.15;;;8.50;99.90;;;;;;4964762;28;20122;-64
2022/04/25 00:03:29;;;;;;;18.48;9.07;;;8.50;99.90;;;;;;4965644;28;20485;-64
2022/04/25 00:05:55;;;;;;;12.30;7.95;;;8.50;99.90;;;;;;4968806;28;20114;-64
2022/04/25 00:08:20;;;;;;;14.75;7.93;;;8.50;99.90;;;;;;4967594;28;20050;-64
2022/04/25 00:10:46;;;;;;;19.08;8.82;;;8.50;99.90;;;;;;4968763;28;20053;-64
2022/04/25 00:13:13;;;;;;;9.88;8.60;;;8.50;99.90;;;;;;4965971;28;20123;-64
2022/04/25 00:15:40;;;;;;;13.50;9.07;;;8.50;99.90;;;;;;4968984;28;20046;-64
2022/04/25 00:18:06;;;;;;;11.85;8.38;;;8.50;99.90;;;;;;4970591;28;20050;-65
2022/04/25 00:20:31;;;;;;;14.98;9.02;;;8.50;99.90;;;;;;4952981;28;20050;-64
2022/04/25 00:23:00;;;;;;;14.75;8.57;;;8.40;99.90;;;;;;4970428;28;20039;-64
2022/04/25 00:25:27;;;;;;;13.48;9.73;;;8.50;99.90;;;;;;4950689;28;20062;-64
2022/04/25 00:27:53;;;;;;;13.95;9.38;;;8.50;99.90;;;;;;4970062;28;20049;-65
2022/04/25 00:30:19;;;;;;;14.63;9.55;;;8.40;99.90;;;;;;4981353;28;20425;-64
2022/04/25 00:32:45;;;;;;;15.85;9.38;;;8.40;99.90;;;;;;4966432;28;20047;-64
2022/04/25 00:35:10;;;;;;;10.68;8.57;;;8.50;99.90;;;;;;4969542;28;20089;-64
2022/04/25 00:37:36;;;;;;;17.30;10.38;;;8.50;99.90;;;;;;4968043;28;20054;-64
2022/04/25 00:40:02;;;;;;;13.77;10.30;;;8.40;99.90;;;;;;4967188;28;20047;-64
2022/04/25 00:42:28;;;;;;;15.35;10.68;;;8.40;99.90;;;;;;4966466;28;20037;-64
2022/04/25 00:44:54;;;;;;;15.73;9.98;;;8.40;99.90;;;;;;4962578;28;20034;-64
2022/04/25 00:47:20;;;;;;;15.85;10.18;;;8.40;99.90;;;;;;4969207;28;20202;-64
2022/04/25 00:49:45;;;;;;;14.07;10.25;;;8.40;99.90;;;;;;4965838;28;20039;-64
2022/04/25 00:52:11;;;;;;;20.02;10.95;;;8.40;99.90;;;;;;4968675;28;20058;-64
2022/04/25 00:54:37;;;;;;;18.98;11.43;;;8.40;99.90;;;;;;4965986;28;20536;-64
2022/04/25 00:57:02;;;;;;;13.85;10.70;;;8.40;99.90;;;;;;4967169;28;20057;-64
2022/04/25 00:59:29;;;;;;;16.73;11.90;;;8.30;99.90;;;;;;4962195;28;20035;-64
2022/04/25 01:01:54;;;;;;;16.98;11.30;;;8.30;99.90;;;;;;4965912;28;20042;-64
2022/04/25 01:04:20;;;;;;;13.93;11.05;;;8.30;99.90;;;;;;4982471;28;20042;-64
2022/04/25 01:06:48;;;;;;;18.85;12.98;;;8.30;99.90;;;;;;4969144;28;20035;-64
2022/04/25 01:09:14;;;;;;;24.40;11.98;;;8.20;99.90;;;;;;4962102;28;20562;-64
2022/04/25 01:11:40;;;;;;;15.38;12.50;;;8.10;99.90;;;;;;4964790;28;20043;-64
2022/04/25 01:14:17;;;;;;;17.35;12.50;;;8.10;99.90;;;;;;4968288;28;20049;-64
2022/04/25 01:16:43;;;;;;;20.48;12.60;;;8.20;99.90;;;;;;4969127;28;20054;-64
2022/04/25 01:19:09;;;;;;;17.38;11.88;;;8.10;99.90;;;;;;4979519;28;20074;-64
2022/04/25 01:21:41;;;;;;;16.73;13.40;;;8.10;99.90;;;;;;4969874;28;20129;-64
2022/04/25 01:29:37;;;;;;;16.92;12.88;;;8.10;99.90;;;;;;4958989;28;20756;-64
2022/04/25 01:32:04;;;;;;;18.83;13.95;;;8.00;99.90;;;;;;4982113;28;20042;-64
2022/04/25 01:34:32;;;;;;;20.58;12.90;;;8.00;99.90;;;;;;4966640;28;20149;-64
2022/04/25 01:36:57;;;;;;;20.15;13.05;;;8.00;99.90;;;;;;4983577;28;20038;-64
2022/04/25 01:39:23;;;;;;;17.83;14.30;;;8.00;99.90;;;;;;4961720;28;20093;-64
2022/04/25 01:41:48;;;;;;;17.67;14.02;;;8.00;99.90;;;;;;4983203;28;20047;-64
2022/04/25 01:44:14;;;;;;;18.10;13.70;;;8.00;99.90;;;;;;4964796;28;20146;-64
2022/04/25 01:46:40;;;;;;;21.48;14.25;;;8.00;99.90;;;;;;4956759;28;20070;-64
2022/04/25 01:49:05;;;;;;;20.42;12.88;;;8.00;99.90;;;;;;4964078;28;20053;-64
2022/04/25 01:51:32;;;;;;;20.52;14.63;;;8.00;99.90;;;;;;4968245;28;20117;-64
2022/04/25 01:53:57;;;;;;;17.75;13.45;;;8.00;99.90;;;;;;4962621;28;20102;-64
2022/04/25 01:56:23;;;;;;;16.73;12.70;;;8.00;99.90;;;;;;4965934;28;20055;-64
2022/04/25 01:58:49;;;;;;;20.95;14.50;;;8.00;99.90;;;;;;4965280;28;20049;-64
2022/04/25 02:01:14;;;;;;;18.95;14.10;;;8.00;99.90;;;;;;4968635;28;20035;-64
2022/04/25 02:03:41;;;;;;;18.92;13.15;;;7.90;99.90;;;;;;4958586;28;20050;-64
2022/04/25 02:06:07;;;;;;;21.55;13.52;;;8.00;99.90;;;;;;4968343;28;20051;-64
2022/04/25 02:08:32;;;;;;;16.45;14.20;;;8.00;99.90;;;;;;4966196;28;20047;-64
2022/04/25 02:13:42;;;;;;;18.70;13.98;;;8.00;99.90;;;;;;4961920;28;20138;-64
2022/04/25 02:16:08;;;;;;;20.90;13.88;;;7.90;99.90;;;;;;4965137;28;20122;-64
2022/04/25 02:18:35;;;;;;;19.58;13.90;;;8.00;99.90;;;;;;4968713;28;20042;-64
2022/04/25 02:21:00;;;;;;;22.67;15.20;;;8.00;99.90;;;;;;4970668;28;20122;-64
2022/04/25 02:23:26;;;;;;;18.80;13.05;;;7.90;99.90;;;;;;4972563;28;20122;-64
2022/04/25 02:25:51;;;;;;;17.60;13.00;;;8.00;99.90;;;;;;4982077;28;20125;-64
2022/04/25 02:28:17;;;;;;;19.15;13.07;;;7.90;99.90;;;;;;4967915;28;20049;-64
2022/04/25 02:30:43;;;;;;;17.30;13.27;;;7.80;99.90;;;;;;4968250;28;20046;-64
2022/04/25 02:33:08;;;;;;;22.10;13.85;;;7.70;99.90;;;;;;4971363;28;20043;-64
2022/04/25 02:35:34;;;;;;;17.85;14.38;;;7.70;99.90;;;;;;4986718;28;20049;-64
2022/04/25 02:37:59;;;;;;;20.55;14.98;;;7.60;99.90;;;;;;4987286;28;20043;-64
2022/04/25 02:40:25;;;;;;;14.85;12.70;;;7.60;99.90;;;;;;4970379;28;20066;-64
2022/04/25 02:42:51;;;;;;;19.27;14.15;;;7.60;99.90;;;;;;4970948;28;20039;-64
2022/04/25 02:45:16;;;;;;;18.73;13.57;;;7.60;99.90;;;;;;4967067;28;20133;-64
2022/04/25 02:47:42;;;;;;;21.48;14.52;;;7.60;99.90;;;;;;4969468;28;20050;-64
2022/04/25 02:50:08;;;;;;;22.45;13.25;;;7.60;99.90;;;;;;4969493;28;20050;-64
2022/04/25 02:52:34;;;;;;;20.90;12.80;;;7.50;99.90;;;;;;4972273;28;20038;-64
2022/04/25 02:54:59;;;;;;;20.23;12.88;;;7.50;99.90;;;;;;4985597;28;20489;-64
2022/04/25 02:57:28;;;;;;;20.05;12.85;;;7.70;99.90;;;;;;4965071;28;20390;-64
2022/04/25 02:59:53;;;;;;;22.05;13.25;;;7.70;99.90;;;;;;4968377;28;20031;-64
2022/04/25 03:02:19;;;;;;;17.13;12.20;;;7.60;99.90;;;;;;4987521;28;20111;-64
2022/04/25 03:04:44;;;;;;;21.73;13.02;;;7.70;99.90;;;;;;4970277;28;20721;-64
2022/04/25 03:07:10;;;;;;;18.08;11.02;;;7.70;99.90;;;;;;4969362;28;20190;-64
2022/04/25 03:09:35;;;;;;;17.65;12.13;;;7.60;99.90;;;;;;4964432;28;20125;-64
2022/04/25 03:12:01;;;;;;;19.17;11.38;;;7.60;99.90;;;;;;4966895;28;20116;-63
2022/04/25 03:14:27;;;;;;;15.27;11.38;;;7.60;99.90;;;;;;4968039;28;20125;-64
2022/04/25 03:16:52;;;;;;;15.90;11.85;;;7.60;99.90;;;;;;4971077;28;20042;-64
2022/04/25 03:19:18;;;;;;;18.45;12.23;;;7.70;99.90;;;;;;4986197;28;20126;-64
2022/04/25 03:21:44;;;;;;;17.42;11.75;;;7.70;99.90;;;;;;4971123;28;20074;-64
2022/04/25 03:24:09;;;;;;;15.00;11.57;;;7.70;99.90;;;;;;4969660;28;20120;-64
2022/04/25 03:26:37;;;;;;;18.35;11.35;;;7.70;99.90;;;;;;4969825;28;20881;-64
2022/04/25 03:29:02;;;;;;;20.10;12.07;;;7.70;99.90;;;;;;4969133;28;20118;-64
2022/04/25 03:31:28;;;;;;;17.35;11.18;;;7.70;99.90;;;;;;4966895;28;20042;-64
2022/04/25 03:33:54;;;;;;;18.45;11.32;;;7.60;99.90;;;;;;4968602;28;20473;-64
2022/04/25 03:36:20;;;;;;;19.35;10.50;;;7.70;99.90;;;;;;4982717;28;20523;-65
2022/04/25 03:38:45;;;;;;;12.63;10.52;;;7.70;99.90;;;;;;4971102;28;20057;-64
2022/04/25 03:41:11;;;;;;;17.25;11.57;;;7.70;99.90;;;;;;4986109;28;20042;-65
2022/04/25 03:43:37;;;;;;;15.48;10.15;;;7.70;99.90;;;;;;4967448;28;20358;-64
2022/04/25 03:46:03;;;;;;;18.45;9.95;;;7.80;99.90;;;;;;4965119;28;20031;-64
2022/04/25 03:48:29;;;;;;;13.80;10.60;;;7.70;99.90;;;;;;4968140;28;20051;-64
2022/04/25 03:50:54;;;;;;;16.00;9.73;;;7.70;99.90;;;;;;4982134;28;20393;-64
2022/04/25 03:53:20;;;;;;;15.18;10.73;;;7.70;99.90;;;;;;4967759;28;20046;-64
2022/04/25 03:58:30;;;;;;;14.73;10.02;;;7.80;99.90;;;;;;4964817;28;20528;-64
2022/04/25 04:00:56;;;;;;;11.55;10.02;;;7.80;99.90;;;;;;4965201;28;20458;-65
2022/04/25 04:03:22;;;;;;;16.40;11.45;;;7.80;99.90;;;;;;4965621;28;20074;-64
2022/04/25 04:05:50;;;;;;;14.68;10.65;;;7.70;99.90;;;;;;4963628;28;20031;-64
2022/04/25 04:08:16;;;;;;;16.10;10.23;;;7.60;99.90;;;;;;4966806;28;20085;-64
2022/04/25 04:10:42;;;;;;;18.33;11.55;;;7.60;99.90;;;;;;4965413;28;20137;-64
2022/04/25 04:13:08;;;;;;;15.63;11.25;;;7.60;99.90;;;;;;4962341;28;20043;-64
2022/04/25 04:15:35;;;;;;;20.02;12.68;;;7.60;99.90;;;;;;4963297;28;20471;-64
2022/04/25 04:18:04;;;;;;;17.05;11.35;;;7.60;99.90;;;;;;4967452;28;20775;-64
2022/04/25 04:20:30;;;;;;;19.10;11.80;;;7.60;99.90;;;;;;4965664;28;20070;-64
2022/04/25 04:22:56;;;;;;;20.30;12.00;;;7.60;99.90;;;;;;4968683;28;20397;-64
2022/04/25 04:25:22;;;;;;;17.63;11.10;;;7.60;99.90;;;;;;4985168;28;20038;-64
2022/04/25 04:27:49;;;;;;;18.45;11.50;;;7.50;99.90;;;;;;4984591;28;20042;-64
2022/04/25 04:30:15;;;;;;;15.57;11.75;;;7.60;99.90;;;;;;4963346;28;20497;-64
2022/04/25 04:32:41;;;;;;;17.90;12.32;;;7.60;99.90;;;;;;4967032;28;20125;-64
2022/04/25 04:35:10;;;;;;;14.90;11.50;;;7.60;99.90;;;;;;4966620;28;20041;-64
2022/04/25 04:37:36;;;;;;;17.27;12.18;;;7.60;99.90;;;;;;4970607;28;20047;-64
2022/04/25 04:42:48;;;;;;;18.17;11.20;;;7.60;99.90;;;;;;4965885;28;20039;-64
2022/04/25 04:45:15;;;;;;;20.58;10.57;;;7.60;99.90;;;;;;4967795;28;20486;-64
2022/04/25 04:47:41;;;;;;;16.42;11.50;;;7.70;99.90;;;;;;4968476;28;20130;-64
2022/04/25 04:50:14;;;;;;;15.80;11.05;;;7.70;99.90;;;;;;4967913;28;20112;-64
2022/04/25 04:52:44;;;;;;;17.20;11.32;;;7.80;99.90;;;;;;4981842;28;20497;-64
2022/04/25 04:55:11;;;;;;;20.30;11.60;;;7.80;99.90;;;;;;4967209;28;20118;-64
2022/04/25 04:57:38;;;;;;;16.92;11.32;;;7.80;99.90;;;;;;4965749;28;20046;-64
2022/04/25 05:00:06;;;;;;;14.75;10.30;;;7.80;99.90;;;;;;4960725;28;20560;-64
2022/04/25 05:02:32;;;;;;;13.75;10.27;;;7.90;99.90;;;;;;4962634;28;20039;-64
2022/04/25 05:04:57;;;;;;;16.05;11.30;;;7.80;99.90;;;;;;4965171;28;20043;-64
2022/04/25 05:07:23;;;;;;;13.52;11.75;;;7.80;99.90;;;;;;4962059;28;20051;-64
2022/04/25 05:09:48;;;;;;;15.98;11.32;;;7.80;99.90;;;;;;4962161;28;20047;-64
2022/04/25 05:12:14;;;;;;;18.63;10.73;;;7.80;99.90;;;;;;4962796;28;20038;-64
2022/04/25 05:14:40;;;;;;;15.43;10.65;;;7.80;99.90;;;;;;4960689;28;20035;-64
2022/04/25 05:17:06;;;;;;;15.20;10.32;;;7.70;99.90;;;;;;4952767;28;20123;-64
2022/04/25 05:19:31;;;;;;;13.60;9.50;;;7.80;99.90;;;;;;4961959;28;20129;-64
2022/04/25 05:21:57;;;;;;;17.17;10.73;;;7.70;99.90;;;;;;4958483;28;20042;-64
2022/04/25 05:24:23;;;;;;;13.13;9.70;;;7.70;99.90;;;;;;4954688;28;20049;-64
2022/04/25 05:26:48;;;;;;;12.15;9.45;;;7.70;99.90;;;;;;4954853;28;20051;-64
2022/04/25 05:29:14;;;;;;;12.40;8.77;;;7.70;99.90;;;;;;4974924;28;20125;-64
2022/04/25 05:31:40;;;;;;;14.75;8.85;;;7.70;99.90;;;;;;4959836;28;20039;-64
2022/04/25 05:34:06;;;;;;;15.32;8.70;;;7.70;99.90;;;;;;4956335;28;20050;-64
2022/04/25 05:36:31;;;;;;;10.75;7.90;;;7.70;99.90;;;;;;4964326;28;20138;-64
2022/04/25 05:38:57;;;;;;;14.73;8.88;;;7.40;99.90;;;;;;4961679;28;20130;-64
2022/04/25 05:41:23;;;;;;;12.52;7.75;;;7.70;99.90;;;;;;4959728;28;20074;-64
2022/04/25 05:43:49;;;;;;;12.13;7.95;;;7.70;99.90;;;;;;4964480;28;20347;-64
2022/04/25 05:46:14;;;;;;;11.75;7.65;;;7.80;99.90;;;;;;4962002;28;20101;-64
2022/04/25 05:54:10;;;;;;;11.15;7.75;;;7.80;99.90;;;;;;4960558;28;20130;-64
2022/04/25 05:56:36;;;;;;;9.63;7.70;;;7.70;99.90;;;;;;4960618;28;20501;-64
2022/04/25 05:59:02;;;;;;;9.43;7.60;;;7.70;99.90;;;;;;4960550;28;20051;-64
2022/04/25 06:01:29;;;;;;;13.13;8.45;;;7.70;99.90;;;;;;4960755;28;20561;-64
2022/04/25 06:03:55;;;;;;;15.00;8.40;;;7.70;99.90;;;;;;4968568;28;20043;-64
2022/04/25 06:06:23;;;;;;;13.00;8.43;;;7.70;99.90;;;;;;4948180;28;20141;-64
2022/04/25 06:08:49;;;;;;;11.90;8.45;;;7.80;99.90;;;;;;4948505;28;20051;-64
2022/04/25 06:11:15;;;;;;;14.05;9.02;;;7.80;99.90;;;;;;4950536;28;20717;-64
2022/04/25 06:13:44;;;;;;;12.70;8.60;;;7.80;99.90;;;;;;4947512;28;20094;-64
2022/04/25 06:16:11;;;;;;;15.45;8.93;;;7.80;99.90;;;;;;4945253;28;20120;-64
2022/04/25 06:18:38;;;;;;;18.88;9.75;;;7.80;99.90;;;;;;4945247;28;20074;-64
2022/04/25 06:21:04;;;;;;;14.93;10.00;;;7.90;99.90;;;;;;4954437;28;20433;-64
2022/04/25 06:23:31;;;;;;;15.68;10.23;;;8.00;99.90;;;;;;4949275;28;20668;-64
2022/04/25 06:25:57;;;;;;;12.82;9.90;;;8.10;99.90;;;;;;4950549;28;21971;-64
2022/04/25 06:28:24;;;;;;;12.82;9.45;;;8.10;99.90;;;;;;4946001;28;20049;-64
2022/04/25 06:30:51;;;;;;;15.40;9.23;;;8.20;99.90;;;;;;4945617;28;20057;-64
2022/04/25 06:33:17;;;;;;;12.95;9.23;;;8.20;99.90;;;;;;4960150;28;20081;-64
2022/04/25 06:35:44;;;;;;;13.48;9.38;;;8.30;99.90;;;;;;4946676;28;20043;-64
2022/04/25 06:38:11;;;;;;;12.10;9.45;;;8.30;99.90;;;;;;4946268;28;20062;-64
2022/04/25 06:40:37;;;;;;;13.55;9.38;;;8.20;99.90;;;;;;4948036;28;20102;-64
2022/04/25 06:43:04;;;;;;;12.40;8.70;;;8.30;99.90;;;;;;4946154;28;20133;-64
2022/04/25 06:45:31;;;;;;;10.93;9.02;;;8.30;99.90;;;;;;4946336;28;20074;-64
2022/04/25 06:47:57;;;;;;;13.25;9.15;;;8.30;99.90;;;;;;4948479;28;20046;-64
2022/04/25 06:50:23;;;;;;;10.25;8.60;;;8.30;99.90;;;;;;4947630;28;20054;-64
2022/04/25 06:52:49;;;;;;;16.02;9.85;;;8.40;99.90;;;;;;4947823;28;20078;-65
2022/04/25 06:55:15;;;;;;;11.75;9.25;;;8.40;99.90;;;;;;4948467;28;20046;-64
2022/04/25 06:57:40;;;;;;;13.77;8.90;;;8.40;99.90;;;;;;4943141;28;20039;-64
2022/04/25 07:00:08;;;;;;;14.10;9.15;;;8.40;99.90;;;;;;4947909;28;20041;-64
2022/04/25 07:02:35;;;;;;;10.15;7.93;;;8.40;99.90;;;;;;4958879;28;20047;-64
2022/04/25 07:05:04;;;;;;;14.90;8.80;;;8.40;99.90;;;;;;4956990;28;20043;-64
2022/04/25 07:07:31;;;;;;;16.13;8.32;;;8.40;99.90;;;;;;4972015;28;20519;-64
2022/04/25 07:09:56;;;;;;;15.15;8.85;;;8.30;99.90;;;;;;4953168;28;20055;-64
2022/04/25 07:12:22;;;;;;;16.95;7.15;;;8.20;99.90;;;;;;4951437;28;20039;-64
2022/04/25 07:14:49;;;;;;;11.02;7.22;;;8.30;99.90;;;;;;4953795;28;20137;-64
2022/04/25 07:17:15;;;;;;;10.25;7.15;;;8.30;99.90;;;;;;4969473;28;20518;-64
2022/04/25 07:19:41;;;;;;;13.00;8.07;;;8.20;99.90;;;;;;4959975;28;20478;-65
2022/04/25 07:30:23;;;;;;;14.82;7.57;;;8.20;99.90;;;;;;4958234;28;20385;-65
2022/04/25 07:32:49;;;;;;;11.88;7.60;;;8.20;99.90;;;;;;4958098;28;20109;-64
2022/04/25 07:35:15;;;;;;;13.60;7.68;;;8.10;99.90;;;;;;4963063;28;20046;-64
2022/04/25 07:37:42;;;;;;;10.80;6.80;;;8.20;99.90;;;;;;4974321;28;20129;-64
2022/04/25 07:40:08;;;;;;;10.23;7.38;;;8.20;99.90;;;;;;4960071;28;20066;-64
2022/04/25 07:42:36;;;;;;;11.80;7.22;;;8.20;99.90;;;;;;4957562;28;20674;-63
2022/04/25 07:45:03;;;;;;;13.48;7.18;;;8.20;99.90;;;;;;4954549;28;20150;-64
2022/04/25 07:47:28;;;;;;;13.38;7.22;;;8.20;99.90;;;;;;4960870;28;20061;-64
2022/04/25 07:49:54;;;;;;;9.38;7.45;;;8.20;99.90;;;;;;4951564;28;20385;-64
2022/04/25 07:52:20;;;;;;;10.75;6.82;;;8.20;99.90;;;;;;4955846;28;20043;-64
2022/04/25 07:54:45;;;;;;;10.15;6.65;;;8.20;99.90;;;;;;4952030;28;20494;-64
2022/04/25 07:57:11;;;;;;;13.70;7.80;;;8.20;99.90;;;;;;4953243;28;20035;-64
2022/04/25 07:59:37;;;;;;;10.00;6.85;;;8.10;99.90;;;;;;4952457;28;20046;-64
2022/04/25 08:02:03;;;;;;;10.45;6.30;;;8.30;99.90;;;;;;4951741;28;20051;-64
2022/04/25 08:04:29;;;;;;;11.70;6.95;;;8.30;99.90;;;;;;4957702;28;20045;-64
2022/04/25 08:06:55;;;;;;;9.52;6.15;;;8.40;99.90;;;;;;4954952;28;20057;-64
2022/04/25 08:09:21;;;;;;;8.30;6.47;;;8.50;99.90;;;;;;4951335;28;20649;-64
2022/04/25 08:11:47;;;;;;;16.75;6.65;;;8.40;99.90;;;;;;4952498;28;20043;-64
2022/04/25 08:19:41;;;;;;;11.90;7.63;;;8.40;99.90;;;;;;4950648;28;20061;-64
2022/04/25 08:22:09;;;;;;;12.93;7.53;;;8.40;99.90;;;;;;4951373;28;20042;-64
2022/04/25 08:24:36;;;;;;;12.98;6.80;;;8.30;99.90;;;;;;4953756;28;20047;-64
2022/04/25 08:27:03;;;;;;;13.70;7.65;;;8.20;99.90;;;;;;4950426;28;20043;-65
2022/04/25 08:29:31;;;;;;;10.35;7.05;;;8.20;99.90;;;;;;4950972;28;20051;-64
2022/04/25 08:31:57;;;;;;;9.57;6.90;;;8.30;99.90;;;;;;4947073;28;20058;-65
2022/04/25 08:34:23;;;;;;;14.55;7.68;;;8.30;99.90;;;;;;4949772;28;20054;-65
2022/04/25 08:36:48;;;;;;;12.55;7.78;;;8.30;99.90;;;;;;4950019;28;20042;-65
2022/04/25 08:39:14;;;;;;;14.60;7.43;;;8.40;99.90;;;;;;4949984;28;20065;-64
2022/04/25 08:41:46;;;;;;;12.50;7.88;;;8.40;99.90;;;;;;4954276;28;20042;-64
2022/04/25 08:44:15;;;;;;;15.45;7.45;;;8.50;99.90;;;;;;4947853;28;20047;-64
2022/04/25 08:46:44;;;;;;;15.95;8.20;;;8.50;99.90;;;;;;4948047;28;20043;-65
2022/04/25 08:49:12;;;;;;;15.82;8.25;;;8.60;99.90;;;;;;4954508;28;20054;-64
2022/04/25 08:51:38;;;;;;;12.52;9.15;;;8.70;99.90;;;;;;4956133;28;21815;-64
2022/04/25 08:54:08;;;;;;;16.67;9.38;;;8.50;99.90;;;;;;4956359;28;20034;-64
2022/04/25 08:56:36;;;;;;;10.70;8.93;;;8.50;99.90;;;;;;4950968;28;20051;-65
2022/04/25 08:59:07;;;;;;;13.88;8.57;;;8.70;99.90;;;;;;4947600;28;20051;-64
2022/04/25 09:01:35;;;;;;;16.05;9.18;;;8.70;99.90;;;;;;4949124;28;20046;-64
2022/04/25 09:04:01;;;;;;;12.27;8.85;;;8.60;99.90;;;;;;4951057;28;20820;-65
2022/04/25 09:06:28;;;;;;;12.35;8.13;;;8.70;99.90;;;;;;4949661;28;20042;-64
2022/04/25 09:08:54;;;;;;;16.70;8.18;;;8.50;99.90;;;;;;4951452;28;20043;-64
2022/04/25 09:14:05;;;;;;;12.55;8.82;;;8.80;99.90;;;;;;4954212;28;20078;-65
2022/04/25 09:16:31;;;;;;;15.10;7.93;;;8.80;99.90;;;;;;4952681;28;20137;-64
2022/04/25 09:18:57;;;;;;;16.98;8.98;;;8.60;99.90;;;;;;4954459;28;20055;-64
2022/04/25 09:21:24;;;;;;;12.18;9.60;;;8.80;99.90;;;;;;4954734;28;20086;-64
2022/04/25 09:23:51;;;;;;;14.30;8.23;;;8.90;99.90;;;;;;4959181;28;20696;-64
2022/04/25 09:26:21;;;;;;;18.33;9.00;;;8.80;99.90;;;;;;4957256;28;20046;-64
2022/04/25 09:28:51;;;;;;;14.07;8.65;;;8.70;99.90;;;;;;4958483;28;20051;-64
2022/04/25 09:31:26;;;;;;;14.15;8.77;;;8.80;99.90;;;;;;4954709;28;20093;-64
2022/04/25 09:33:53;;;;;;;13.33;8.30;;;8.70;99.90;;;;;;4954813;28;20128;-64
2022/04/25 09:36:20;;;;;;;13.27;7.72;;;8.70;99.90;;;;;;4952096;28;20034;-65
2022/04/25 09:38:46;;;;;;;14.07;7.93;;;8.60;99.90;;;;;;4952842;28;20034;-64
2022/04/25 09:41:15;;;;;;;12.02;7.68;;;8.70;99.90;;;;;;4971118;28;20499;-64
2022/04/25 09:43:42;;;;;;;12.13;7.65;;;8.70;99.90;;;;;;4956147;28;20069;-64
2022/04/25 09:46:17;;;;;;;11.82;7.53;;;8.70;99.90;;;;;;4955018;28;20041;-64
2022/04/25 09:49:03;;;;;;;14.50;7.93;;;8.60;99.90;;;;;;4954370;28;20039;-64
2022/04/25 09:51:30;;;;;;;14.43;8.00;;;8.60;99.90;;;;;;4956043;28;20070;-64
2022/04/25 09:53:57;;;;;;;12.98;8.88;;;8.50;99.90;;;;;;4955271;28;20050;-64
2022/04/25 09:56:25;;;;;;;11.90;8.27;;;8.50;99.90;;;;;;4938268;28;20051;-64
2022/04/25 09:59:04;;;;;;;14.48;9.38;;;8.50;99.90;;;;;;4954773;28;20045;-64
2022/04/25 10:01:34;;;;;;;14.68;7.97;;;8.50;99.90;;;;;;4956599;28;20042;-64
2022/04/25 10:04:00;;;;;;;13.05;7.47;;;8.60;99.90;;;;;;4955307;28;20097;-64
2022/04/25 10:06:32;;;;;;;13.63;8.88;;;8.60;99.90;;;;;;4957624;28;20070;-64
2022/04/25 10:09:00;;;;;;;14.50;8.30;;;8.80;99.90;;;;;;4955456;28;21364;-64
2022/04/25 10:11:32;;;;;;;12.45;7.15;;;9.10;99.90;;;;;;4948023;28;21449;-64
2022/04/25 10:13:58;;;;;;;11.75;7.18;;;8.80;99.90;;;;;;4965986;28;20101;-64
2022/04/25 10:16:24;;;;;;;14.07;8.00;;;8.80;99.90;;;;;;4940850;28;21313;-64
2022/04/25 10:18:51;;;;;;;15.32;7.63;;;8.80;99.90;;;;;;4935940;28;20043;-64
2022/04/25 10:21:17;;;;;;;12.25;7.00;;;8.80;99.90;;;;;;4939763;28;20035;-64
2022/04/25 10:23:46;;;;;;;9.73;6.32;;;8.80;99.90;;;;;;4946917;28;20086;-64
2022/04/25 10:26:12;;;;;;;13.35;7.50;;;8.90;99.90;;;;;;4955006;28;20888;-64
2022/04/25 10:28:46;;;;;;;8.38;5.97;;;8.90;99.90;;;;;;4955093;28;21435;-64
2022/04/25 10:31:18;;;;;;;9.50;5.97;;;8.90;99.90;;;;;;4951638;28;20047;-64
2022/04/25 10:33:51;;;;;;;12.02;5.95;;;8.90;99.90;;;;;;4940255;28;20050;-64
2022/04/25 10:36:38;;;;;;;11.73;6.07;;;9.00;99.90;;;;;;4953266;28;20492;-64
2022/04/25 10:39:16;;;;;;;10.48;5.43;;;8.90;99.90;;;;;;4954779;28;20054;-64
2022/04/25 10:44:30;;;;;;;10.20;5.57;;;9.00;99.90;;;;;;4958572;28;20054;-64
2022/04/25 10:47:05;;;;;;;10.02;6.15;;;8.90;99.90;;;;;;4956623;28;20209;-64
2022/04/25 10:49:42;;;;;;;9.70;6.47;;;8.90;99.90;;;;;;4958125;28;20056;-64
2022/04/25 10:52:43;;;;;;;11.23;5.57;;;9.00;99.90;;;;;;4953908;28;20042;-64
2022/04/25 10:55:23;;;;;;;9.50;5.55;;;9.20;99.90;;;;;;4959800;28;20042;-65
2022/04/25 10:58:05;;;;;;;12.60;4.95;;;9.20;99.90;;;;;;4954970;28;20042;-64
2022/04/25 11:00:37;;;;;;;6.95;5.20;;;9.20;99.90;;;;;;4959735;28;20049;-64
2022/04/25 11:03:04;;;;;;;8.98;5.13;;;9.30;99.90;;;;;;4963418;28;20094;-64
2022/04/25 11:05:38;;;;;;;8.05;4.32;;;9.20;99.90;;;;;;4960500;28;20035;-64
2022/04/25 11:08:19;;;;;;;6.40;4.18;;;9.30;99.90;;;;;;4958688;28;20050;-64
2022/04/25 11:10:45;;;;;;;9.07;4.70;;;9.30;99.90;;;;;;4959445;28;20078;-64
2022/04/25 11:13:12;;;;;;;9.15;4.95;;;9.40;99.90;;;;;;4957955;28;20223;-64
2022/04/25 11:15:38;;;;;;;7.15;4.68;;;9.60;99.90;;;;;;4958698;28;20043;-64
2022/04/25 11:18:34;;;;;;;7.85;5.15;;;9.70;99.90;;;;;;4954850;28;20444;-64
2022/04/25 11:21:05;;;;;;;9.05;5.00;;;9.90;99.90;;;;;;4949392;28;20061;-64
2022/04/25 11:23:46;;;;;;;10.93;5.30;;;10.10;99.90;;;;;;4959228;28;20130;-64
2022/04/25 11:26:36;;;;;;;12.57;5.47;;;10.20;99.90;;;;;;4958789;28;20125;-64
2022/04/25 11:29:09;;;;;;;10.73;5.05;;;10.30;99.90;;;;;;4957713;28;20061;-64
2022/04/25 11:31:38;;;;;;;7.97;5.32;;;10.30;99.90;;;;;;4957470;28;20051;-64
2022/04/25 11:34:07;;;;;;;7.65;4.97;;;10.40;99.90;;;;;;4960526;28;20397;-64
2022/04/25 11:36:41;;;;;;;8.32;5.43;;;10.50;99.90;;;;;;4961134;28;20047;-64
2022/04/25 11:41:52;;;;;;;10.15;5.75;;;10.80;99.90;;;;;;4958167;28;20042;-64
2022/04/25 11:44:17;;;;;;;7.53;5.00;;;11.20;99.90;;;;;;4959383;28;20050;-64
2022/04/25 11:46:44;;;;;;;9.10;5.25;;;11.40;99.90;;;;;;4958262;28;20106;-64
2022/04/25 11:49:10;;;;;;;6.00;5.43;;;11.50;99.90;;;;;;4958963;28;21857;-65
2022/04/25 11:51:38;;;;;;;8.05;5.32;;;11.50;99.90;;;;;;4959942;28;20039;-64
2022/04/25 11:54:08;;;;;;;6.25;5.25;;;11.60;99.90;;;;;;4959299;28;20413;-65
2022/04/25 11:56:39;;;;;;;9.07;5.40;;;11.80;99.90;;;;;;4958063;28;20039;-65
2022/04/25 11:59:12;;;;;;;7.85;5.65;;;11.90;99.90;;;;;;4959032;28;20065;-64
2022/04/25 12:01:40;;;;;;;7.00;5.60;;;12.00;99.90;;;;;;4954325;28;20554;-64
2022/04/25 12:04:21;;;;;;;7.88;6.00;;;12.10;99.90;;;;;;4952980;28;20043;-64
2022/04/25 12:07:06;;;;;;;8.20;5.88;;;12.20;99.90;;;;;;4958047;28;20038;-64
2022/04/25 12:17:52;;;;;;;8.27;6.35;;;12.50;99.90;;;;;;4954355;28;20087;-65
2022/04/25 12:20:29;;;;;;;12.20;6.68;;;12.50;99.90;;;;;;4958458;28;20057;-64
2022/04/25 12:22:59;;;;;;;7.35;5.90;;;12.50;99.90;;;;;;4957837;28;20187;-64
2022/04/25 12:25:29;;;;;;;6.93;6.00;;;12.40;99.90;;;;;;4952376;28;20051;-64
2022/04/25 12:28:22;;;;;;;7.72;6.45;;;12.40;99.90;;;;;;4955774;28;20070;-64
2022/04/25 12:31:03;;;;;;;10.00;5.88;;;12.40;99.90;;;;;;4955338;28;20544;-64
2022/04/25 12:33:35;;;;;;;7.22;5.13;;;12.50;99.90;;;;;;4951804;28;20199;-64
2022/04/25 12:36:16;;;;;;;6.70;6.00;;;12.50;99.90;;;;;;4953207;28;20046;-65
2022/04/25 12:38:58;;;;;;;8.00;5.65;;;12.70;99.90;;;;;;4955811;28;20137;-64
2022/04/25 12:41:29;;;;;;;7.03;6.07;;;13.00;99.90;;;;;;4956850;28;20176;-64
2022/04/25 12:43:57;;;;;;;8.73;5.55;;;13.20;99.90;;;;;;4955012;28;20082;-65
2022/04/25 12:46:41;;;;;;;8.80;5.93;;;13.30;99.90;;;;;;4951668;28;20042;-64
2022/04/25 12:49:16;;;;;;;7.07;5.20;;;13.50;99.90;;;;;;4954021;28;20051;-64
2022/04/25 12:52:04;;;;;;;12.02;6.43;;;13.60;99.90;;;;;;4950682;28;20492;-64
2022/04/25 12:54:42;;;;;;;7.57;5.63;;;13.70;99.90;;;;;;4954733;28;20089;-65
2022/04/25 12:57:13;;;;;;;8.70;5.88;;;13.60;99.90;;;;;;4955132;28;20086;-64
2022/04/25 12:59:40;;;;;;;9.25;5.15;;;13.50;99.90;;;;;;4958400;28;20093;-64
2022/04/25 13:02:09;;;;;;;10.18;5.97;;;13.40;99.90;;;;;;4957545;28;20092;-64
2022/04/25 13:04:54;;;;;;;7.60;5.30;;;13.50;99.90;;;;;;4953933;28;20039;-64
2022/04/25 13:07:24;;;;;;;8.13;5.97;;;13.50;99.90;;;;;;4952962;28;20045;-65
2022/04/25 13:09:53;;;;;;;7.13;5.63;;;13.60;99.90;;;;;;4952343;28;20480;-64
2022/04/25 13:12:19;;;;;;;9.15;7.03;;;13.60;99.90;;;;;;4956045;28;20061;-65
2022/04/25 13:14:45;;;;;;;6.20;5.18;;;13.70;99.90;;;;;;4956926;28;20039;-65
2022/04/25 13:17:11;;;;;;;7.43;5.40;;;13.60;99.90;;;;;;4955262;28;20045;-65
2022/04/25 13:19:39;;;;;;;8.55;5.63;;;13.40;99.90;;;;;;4971815;28;20057;-64
2022/04/25 13:22:05;;;;;;;9.35;6.38;;;13.40;99.90;;;;;;4954999;28;20481;-64
2022/04/25 13:24:32;;;;;;;8.73;5.75;;;13.30;99.90;;;;;;4955351;28;20045;-64
2022/04/25 13:26:58;;;;;;;7.85;6.20;;;13.20;99.90;;;;;;4966919;28;20050;-64
2022/04/25 13:29:23;;;;;;;7.15;6.35;;;13.20;99.90;;;;;;4954808;28;20051;-64
2022/04/25 13:31:49;;;;;;;6.57;5.57;;;13.20;99.90;;;;;;4956074;28;20097;-64
2022/04/25 13:34:15;;;;;;;8.57;5.60;;;13.20;99.90;;;;;;4956382;28;20080;-64
2022/04/25 13:36:41;;;;;;;8.30;6.60;;;13.10;99.90;;;;;;4952847;28;20055;-65